Dalhart, TX

5:49 AM CDT on September 02, 2014 (GMT -0500)
Dalhart Municipal | Change Station
CLOSE
Current Station
Airport
Location: Dalhart,
Elevation: 3990 ft
Nearby Weather Stations

Elev 3990 ft 36.03 °N, 102.55 °W | Updated 4 minutes ago

Overcast
Overcast
68 °F
Feels Like 68 °F
N
15
Wind Variable Wind from NNE

Today
High -- | Low -- °F
--% Chance of Precip.
Yesterday
High -- | Low -- °F
Precip. -- in
7:22 AM 8:16 PM
Waxing Crescent, 50% visible
Pressure 30.01 in
Visibility 5.0 miles
Clouds Overcast 400 ft
Dew Point 65 °F
Humidity 90%
Rainfall 0.00 in
Snow Depth Not available.
UV 0 out of 12
Pollen 11.10 out of 12
Air Quality Not available.
Flu Activity Not available.
SPECI KDHT 021045Z AUTO 02013KT 5SM BR OVC004 20/18 A3001 RMK AO2 T02000183

More Conditions Fewer Conditions

Pressure 30.01 in
Visibility 5.0 miles
Clouds Overcast 400 ft
Dew Point 65 °F
Humidity 90%
Rainfall 0.00 in
Snow Depth Not available.
UV 0 out of 12
Pollen 11.10 out of 12
Air Quality Not available.
Flu Activity Not available.
SPECI KDHT 021045Z AUTO 02013KT 5SM BR OVC004 20/18 A3001 RMK AO2 T02000183

More Conditions Fewer Conditions

10-Day Weather Forecast

Almanac

Astronomy

Sep. 02, 2014 Rise Set
Actual Time 7:22 AM CDT 8:16 PM CDT
Civil Twilight 6:56 AM CDT 8:42 PM CDT
Nautical Twilight 6:25 AM CDT 9:13 PM CDT
Astronomical Twilight 5:53 AM CDT 9:45 PM CDT
Moon 2:55 PM CDT 12:33 AM CDT
Length of Visible Light 13h 45m
Length of Day
12h 53m
Tomorrow will be 2m 12s shorter.
Waxing Crescent, 50% of the Moon is Illuminated
Today
Waxing Crescent
Sep 2
First Quarter
Sep 8
Full
Sep 15
Last Quarter
Sep 24
New

Today's Extremes

State Highs State Lows

Community

WunderPhotos

Upload Photos

1,749,611 photos uploaded!

WunderBlogs® & News

Nearby

Snow Depth

Station Depth Elevation
No new snow has been reported.

Earthquake Activity

City Distance Mag. Time & Date
No recent earthquake activity has been reported nearby.
Minimum magnitude displayed is 2.5.

Coastal Water Temperatures

Place Temperature
No Stations Reporting

Nearby Weather Stations